createdAt,value
2023-01-08T00:00:56.811Z,99196.72
2023-01-08T00:03:26.390Z,99206.28
2023-01-08T00:05:55.431Z,99215.72
2023-01-08T00:08:24.458Z,99214.94
2023-01-08T00:10:57.495Z,99227.06
2023-01-08T00:13:26.975Z,99232.66
2023-01-08T00:15:56.338Z,99225.44
2023-01-08T00:18:28.071Z,99226.25
2023-01-08T00:20:57.507Z,99223.78
2023-01-08T00:23:26.422Z,99217.19
2023-01-08T00:25:55.736Z,99211.75
2023-01-08T00:28:25.208Z,99216.09
2023-01-08T00:30:54.707Z,99215.47
2023-01-08T00:33:24.034Z,99217.03
2023-01-08T00:35:53.132Z,99209.78
2023-01-08T00:38:26.657Z,99216.91
2023-01-08T00:40:55.817Z,99219.41
2023-01-08T00:43:24.904Z,99231.09
2023-01-08T00:45:54.832Z,99224.94
2023-01-08T00:48:25.708Z,99233.50
2023-01-08T00:50:55.851Z,99236.16
2023-01-08T00:53:25.373Z,99230.88
2023-01-08T00:56:05.412Z,99223.88
2023-01-08T00:58:34.751Z,99227.13
2023-01-08T01:01:05.302Z,99223.34
2023-01-08T01:03:35.093Z,99221.91
2023-01-08T01:06:08.026Z,99225.59
2023-01-08T01:08:38.851Z,99226.53
2023-01-08T01:11:19.216Z,99222.75
2023-01-08T01:13:50.643Z,99227.00
2023-01-08T01:16:21.379Z,99228.34
2023-01-08T01:18:53.861Z,99227.53
2023-01-08T01:21:25.940Z,99223.13
2023-01-08T01:24:01.435Z,99219.94
2023-01-08T01:26:32.376Z,99233.50
2023-01-08T01:29:03.592Z,99237.81
2023-01-08T01:31:35.029Z,99233.88
2023-01-08T01:34:05.364Z,99237.28
2023-01-08T01:36:35.978Z,99240.84
2023-01-08T01:39:07.414Z,99246.63
2023-01-08T01:41:46.805Z,99254.53
2023-01-08T01:44:37.505Z,99259.47
2023-01-08T01:47:34.805Z,99268.44
2023-01-08T01:50:14.420Z,99280.94
2023-01-08T01:53:03.692Z,99275.53
2023-01-08T01:55:36.095Z,99272.41
2023-01-08T01:58:17.350Z,99281.19
2023-01-08T02:00:48.021Z,99283.63
2023-01-08T02:03:23.075Z,99284.00
2023-01-08T02:06:13.080Z,99290.91
2023-01-08T02:09:02.236Z,99303.31
2023-01-08T02:12:19.601Z,99297.53
2023-01-08T02:15:07.506Z,99291.19
2023-01-08T02:17:59.385Z,99282.31
2023-01-08T02:20:50.750Z,99286.59
2023-01-08T02:23:28.271Z,99287.13
2023-01-08T02:26:10.943Z,99292.38
2023-01-08T02:28:51.376Z,99289.75
2023-01-08T02:31:25.197Z,99291.03
2023-01-08T02:33:55.506Z,99288.13
2023-01-08T02:36:34.683Z,99296.78
2023-01-08T02:39:23.361Z,99291.44
2023-01-08T02:41:54.121Z,99286.97
2023-01-08T02:44:42.840Z,99297.75
2023-01-08T02:47:33.023Z,99317.00
2023-01-08T02:50:23.624Z,99333.50
2023-01-08T02:53:05.786Z,99336.47
2023-01-08T02:55:37.974Z,99335.34
2023-01-08T02:58:08.609Z,99341.22
2023-01-08T03:00:39.967Z,99349.13
2023-01-08T03:03:17.263Z,99357.94
2023-01-08T03:05:54.727Z,99365.09
2023-01-08T03:08:25.887Z,99357.03
2023-01-08T03:11:20.633Z,99352.44
2023-01-08T03:14:06.051Z,99350.53
2023-01-08T03:16:41.707Z,99353.91
2023-01-08T03:19:46.791Z,99365.28
2023-01-08T03:22:20.041Z,99364.59
2023-01-08T03:24:54.077Z,99365.44
2023-01-08T03:27:29.207Z,99358.94
2023-01-08T03:30:19.709Z,99362.81
2023-01-08T03:32:51.339Z,99374.88
2023-01-08T03:35:24.122Z,99370.88
2023-01-08T03:37:58.166Z,99369.38
2023-01-08T03:40:38.014Z,99373.41
2023-01-08T03:43:07.466Z,99380.28
2023-01-08T03:45:40.159Z,99380.50
2023-01-08T03:48:09.838Z,99397.44
2023-01-08T03:50:38.929Z,99389.53
2023-01-08T03:53:10.456Z,99384.78
2023-01-08T03:55:39.707Z,99388.13
2023-01-08T03:58:08.752Z,99381.34
2023-01-08T04:00:38.092Z,99387.28
2023-01-08T04:03:07.690Z,99379.78
2023-01-08T04:05:37.101Z,99371.41
2023-01-08T04:08:06.777Z,99375.88
2023-01-08T04:10:35.794Z,99374.13
2023-01-08T04:13:05.467Z,99383.91
2023-01-08T04:15:35.362Z,99384.63
2023-01-08T04:18:04.625Z,99394.97
2023-01-08T04:20:33.786Z,99394.06
2023-01-08T04:23:03.757Z,99396.25
2023-01-08T04:25:32.755Z,99396.50
2023-01-08T04:28:01.693Z,99402.94
2023-01-08T04:30:30.934Z,99393.13
2023-01-08T04:33:00.371Z,99398.06
2023-01-08T04:35:29.305Z,99401.03
2023-01-08T04:37:58.363Z,99398.00
2023-01-08T04:40:27.556Z,99407.44
2023-01-08T04:42:56.934Z,99401.53
2023-01-08T04:45:26.567Z,99396.31
2023-01-08T04:47:59.816Z,99396.59
2023-01-08T04:50:29.385Z,99400.44
2023-01-08T04:53:01.513Z,99399.31
2023-01-08T04:55:30.650Z,99392.78
2023-01-08T04:57:59.707Z,99389.97
2023-01-08T05:00:29.068Z,99394.44
2023-01-08T05:02:58.076Z,99400.28
2023-01-08T05:05:27.959Z,99394.09
2023-01-08T05:07:56.917Z,99387.41
2023-01-08T05:10:26.479Z,99391.34
2023-01-08T05:13:02.736Z,99392.22
2023-01-08T05:15:32.195Z,99403.28
2023-01-08T05:18:03.540Z,99402.78
2023-01-08T05:20:34.292Z,99404.75
2023-01-08T05:23:03.846Z,99408.75
2023-01-08T05:25:33.290Z,99402.84
2023-01-08T05:28:02.740Z,99400.81
2023-01-08T05:30:31.871Z,99400.41
2023-01-08T05:33:02.167Z,99404.38
2023-01-08T05:35:31.333Z,99402.84
2023-01-08T05:38:02.033Z,99400.78
2023-01-08T05:40:31.461Z,99393.88
2023-01-08T05:43:06.164Z,99397.47
2023-01-08T05:45:35.865Z,99382.69
2023-01-08T05:48:09.127Z,99381.34
2023-01-08T05:50:39.065Z,99381.16
2023-01-08T05:53:09.407Z,99376.09
2023-01-08T05:55:39.131Z,99372.97
2023-01-08T05:58:08.254Z,99362.81
2023-01-08T06:00:37.200Z,99368.06
2023-01-08T06:03:07.029Z,99366.22
2023-01-08T06:05:36.277Z,99368.09
2023-01-08T06:08:08.283Z,99364.72
2023-01-08T06:10:40.024Z,99364.84
2023-01-08T06:13:11.389Z,99360.28
2023-01-08T06:15:41.171Z,99363.03
2023-01-08T06:18:10.081Z,99355.31
2023-01-08T06:20:39.816Z,99362.34
2023-01-08T06:23:10.528Z,99358.88
2023-01-08T06:25:39.626Z,99366.50
2023-01-08T06:28:09.678Z,99361.59
2023-01-08T06:30:38.913Z,99362.44
2023-01-08T06:33:07.997Z,99372.75
2023-01-08T06:35:37.670Z,99366.06
2023-01-08T06:38:06.429Z,99368.59
2023-01-08T06:40:35.739Z,99356.66
2023-01-08T06:43:08.131Z,99354.06
2023-01-08T06:45:37.204Z,99347.09
2023-01-08T06:48:08.595Z,99336.97
2023-01-08T06:50:38.067Z,99332.69
2023-01-08T06:53:07.166Z,99331.84
2023-01-08T06:55:36.798Z,99321.53
2023-01-08T06:58:05.883Z,99306.94
2023-01-08T07:00:35.238Z,99307.78
2023-01-08T07:03:04.527Z,99312.09
2023-01-08T07:05:33.625Z,99312.06
2023-01-08T07:08:02.656Z,99311.22
2023-01-08T07:10:32.603Z,99305.22
2023-01-08T07:13:01.706Z,99294.91
2023-01-08T07:15:30.797Z,99297.47
2023-01-08T07:18:00.299Z,99287.19
2023-01-08T07:20:30.161Z,99279.44
2023-01-08T07:23:06.651Z,99275.09
2023-01-08T07:25:36.349Z,99275.91
2023-01-08T07:28:05.381Z,99275.94
2023-01-08T07:30:34.479Z,99261.34
2023-01-08T07:33:03.813Z,99258.78
2023-01-08T07:35:33.151Z,99256.22
2023-01-08T07:38:02.467Z,99246.72
2023-01-08T07:40:32.846Z,99234.69
2023-01-08T07:43:03.576Z,99230.41
2023-01-08T07:45:33.664Z,99227.84
2023-01-08T07:48:02.866Z,99234.69
2023-01-08T07:50:32.159Z,99220.91
2023-01-08T07:53:02.711Z,99220.03
2023-01-08T07:55:32.745Z,99216.59
2023-01-08T07:58:01.964Z,99209.81
2023-01-08T08:00:31.360Z,99210.59
2023-01-08T08:03:05.324Z,99211.31
2023-01-08T08:05:35.695Z,99200.91
2023-01-08T08:08:10.758Z,99215.47
2023-01-08T08:10:41.818Z,99205.19
2023-01-08T08:13:12.167Z,99211.97
2023-01-08T08:15:42.470Z,99200.81
2023-01-08T08:18:12.651Z,99200.72
2023-01-08T08:20:41.557Z,99206.09
2023-01-08T08:23:16.073Z,99206.06
2023-01-08T08:25:45.154Z,99214.56
2023-01-08T08:28:14.527Z,99223.88
2023-01-08T08:30:44.267Z,99211.03
2023-01-08T08:33:13.874Z,99197.94
2023-01-08T08:35:42.977Z,99186.91
2023-01-08T08:38:11.785Z,99181.75
2023-01-08T08:40:41.096Z,99179.09
2023-01-08T08:43:11.707Z,99168.56
2023-01-08T08:45:41.055Z,99161.66
2023-01-08T08:48:10.268Z,99157.28
2023-01-08T08:50:40.417Z,99157.25
2023-01-08T08:53:09.665Z,99150.34
2023-01-08T08:55:39.032Z,99145.16
2023-01-08T08:58:13.697Z,99143.31
2023-01-08T09:00:44.157Z,99136.34
2023-01-08T09:03:17.110Z,99136.53
2023-01-08T09:05:46.399Z,99130.41
2023-01-08T09:08:15.251Z,99125.34
2023-01-08T09:10:44.850Z,99120.34
2023-01-08T09:13:14.508Z,99119.44
2023-01-08T09:15:43.682Z,99110.59
2023-01-08T09:18:14.634Z,99103.88
2023-01-08T09:20:47.190Z,99101.16
2023-01-08T09:23:16.805Z,99097.72
2023-01-08T09:25:46.162Z,99089.28
2023-01-08T09:28:15.167Z,99092.38
2023-01-08T09:30:44.427Z,99080.63
2023-01-08T09:33:13.768Z,99092.78
2023-01-08T09:35:45.838Z,99078.00
2023-01-08T09:38:15.024Z,99077.44
2023-01-08T09:40:53.347Z,99081.41
2023-01-08T09:43:24.404Z,99083.94
2023-01-08T09:46:06.698Z,99107.13
2023-01-08T09:48:39.481Z,99127.84
2023-01-08T09:51:15.053Z,99140.06
2023-01-08T09:53:45.672Z,99159.09
2023-01-08T09:56:19.948Z,99170.19
2023-01-08T09:58:55.165Z,99148.59
2023-01-08T10:01:30.127Z,99146.91
2023-01-08T10:04:14.264Z,99147.75
2023-01-08T10:06:51.993Z,99134.75
2023-01-08T10:09:27.657Z,99137.34
2023-01-08T10:12:00.948Z,99130.53
2023-01-08T10:14:35.410Z,99115.06
2023-01-08T10:17:14.763Z,99114.06
2023-01-08T10:19:44.379Z,99109.84
2023-01-08T10:22:24.999Z,99110.53
2023-01-08T10:24:54.597Z,99110.66
2023-01-08T10:27:25.360Z,99102.06
2023-01-08T10:29:54.973Z,99102.94
2023-01-08T10:32:37.909Z,99083.81
